Terminal Aerodrome Forecast
Issued by NWS Kansas City/Pleasant Hill, MO

Home | Current Version | Previous Version | Text Only | Print | Product List | Glossary On
Versions: 1 2 3 4 5 6 7 8 9 10 11 12 13 14 15 16 17
000
FTUS43 KEAX 192300 RRA
TAFMCI
TAF
KMCI 192342Z 2000/2024 06011KT P6SM OVC050
     FM200400 07013KT P6SM -RA OVC035
     FM200800 06013KT 5SM RA OVC019
     FM201100 06011KT 4SM -RA BR OVC007
     FM201800 03011KT P6SM VCSH OVC030=

USA.gov is the U.S. government's official web portal to all federal, state and local government web resources and services.